Time;durP1;ratioP1;P1;durP2;ratioP2;P2;SDS_P1;SDS_P2;PMS_P1;PMS_P2;Temp;Humidity;BMP_temperature;BMP_pressure;BME280_temperature;BME280_humidity;BME280_pressure;Samples;Min_cycle;Max_cycle;Signal;HPM_P1;HPM_P2
2023/08/10 00:01:23;;;;;;;5.90;3.88;;;;;;;24.62;52.86;101207.38;6119477;23;20456;-80
2023/08/10 00:03:56;;;;;;;8.90;3.95;;;;;;;24.44;51.16;101170.00;6165938;23;20056;-80
2023/08/10 00:06:26;;;;;;;8.57;3.80;;;;;;;24.51;50.21;101174.41;6117682;23;20196;-81
2023/08/10 00:08:53;;;;;;;29.10;4.43;;;;;;;24.57;50.02;101167.28;6123700;23;20548;-81
2023/08/10 00:11:24;;;;;;;13.98;4.70;;;;;;;24.63;50.10;101184.59;6117574;23;20379;-81
2023/08/10 00:13:54;;;;;;;9.20;3.22;;;;;;;24.64;49.91;101194.41;6115415;23;20072;-79
2023/08/10 00:16:24;;;;;;;7.70;3.55;;;;;;;24.62;50.59;101199.22;6137390;23;20203;-81
2023/08/10 00:18:51;;;;;;;9.00;3.83;;;;;;;24.50;50.29;101194.44;6111735;23;20494;-81
2023/08/10 00:21:22;;;;;;;9.23;4.00;;;;;;;24.51;50.64;101196.09;6119821;23;20023;-81
2023/08/10 00:23:57;;;;;;;8.88;4.00;;;;;;;24.47;50.66;101205.75;6116702;23;20109;-81
2023/08/10 00:26:24;;;;;;;7.32;3.70;;;;;;;24.44;50.33;101200.72;6146137;23;20067;-80
2023/08/10 00:28:51;;;;;;;10.82;3.95;;;;;;;24.42;50.33;101202.81;6112319;23;20556;-80
2023/08/10 00:31:19;;;;;;;9.20;3.78;;;;;;;23.99;50.86;101148.25;6135066;23;20556;-80
2023/08/10 00:33:46;;;;;;;12.25;3.58;;;;;;;24.29;51.31;101191.97;6132415;23;20038;-82
2023/08/10 00:36:13;;;;;;;7.05;3.53;;;;;;;24.19;51.52;101175.31;6131840;23;20031;-82
2023/08/10 00:38:46;;;;;;;17.35;4.60;;;;;;;24.08;51.96;101165.97;6140072;23;20445;-81
2023/08/10 00:41:21;;;;;;;10.52;4.43;;;;;;;24.27;52.38;101210.34;6133853;23;20353;-79
2023/08/10 00:43:48;;;;;;;8.10;4.93;;;;;;;24.10;52.57;101178.28;6117630;23;20025;-82
2023/08/10 00:46:22;;;;;;;8.55;3.90;;;;;;;24.04;53.08;101187.25;6136394;23;20037;-80
2023/08/10 00:48:48;;;;;;;14.80;4.63;;;;;;;24.22;53.57;101207.44;6098861;23;20025;-81
2023/08/10 00:51:15;;;;;;;12.88;4.50;;;;;;;24.05;54.12;101174.50;6145967;23;20028;-81
2023/08/10 00:53:42;;;;;;;11.25;5.03;;;;;;;24.10;54.92;101199.97;6119376;23;20037;-81
2023/08/10 00:56:14;;;;;;;15.23;5.22;;;;;;;24.21;55.36;101228.31;6121513;23;20043;-82
2023/08/10 00:58:46;;;;;;;8.65;4.45;;;;;;;23.28;56.06;101079.28;6135615;23;20025;-81
2023/08/10 01:01:17;;;;;;;12.35;5.07;;;;;;;23.85;56.19;101169.13;6149215;23;20087;-82
2023/08/10 01:03:44;;;;;;;8.27;4.97;;;;;;;23.80;56.74;101171.63;6129590;23;20333;-81
2023/08/10 01:06:36;;;;;;;10.55;5.00;;;;;;;23.99;57.05;101211.44;6141434;23;20079;-80
2023/08/10 01:09:39;;;;;;;9.07;5.10;;;;;;;24.02;57.69;101221.88;6139791;23;20075;-81
2023/08/10 01:12:36;;;;;;;9.57;5.05;;;;;;;23.97;58.04;101221.66;6135230;23;20039;-80
2023/08/10 01:15:31;;;;;;;12.77;5.50;;;;;;;23.55;57.77;101166.00;6136683;23;20450;-81
2023/08/10 01:17:59;;;;;;;13.30;5.40;;;;;;;23.80;57.67;101210.41;6147646;23;20397;-81
2023/08/10 01:20:30;;;;;;;13.43;4.93;;;;;;;23.84;57.85;101218.97;6148050;23;20020;-81
2023/08/10 01:22:56;;;;;;;9.05;5.35;;;;;;;23.97;57.66;101231.69;6134605;23;20758;-81
2023/08/10 01:25:25;;;;;;;14.48;5.90;;;;;;;23.88;57.70;101222.91;6164790;23;20017;-81
2023/08/10 01:27:52;;;;;;;12.27;5.28;;;;;;;23.59;57.52;101169.94;6131419;23;20033;-81
2023/08/10 01:30:19;;;;;;;9.48;4.88;;;;;;;23.74;58.21;101210.41;6133522;23;20369;-81
2023/08/10 01:32:46;;;;;;;13.40;5.88;;;;;;;23.62;58.57;101207.47;6107835;23;20321;-81
2023/08/10 01:35:13;;;;;;;13.15;5.97;;;;;;;23.70;58.67;101220.81;6099252;23;20417;-80
2023/08/10 01:37:40;;;;;;;13.10;5.53;;;;;;;23.25;58.78;101174.50;6127744;23;20029;-80
2023/08/10 01:40:13;;;;;;;12.68;5.40;;;;;;;23.43;58.58;101192.88;6120029;23;20033;-81
2023/08/10 01:42:41;;;;;;;10.85;6.32;;;;;;;23.36;58.43;101194.75;6137885;23;20432;-81
2023/08/10 01:45:10;;;;;;;21.13;6.45;;;;;;;23.56;58.48;101232.69;6109562;23;20338;-80
2023/08/10 01:47:57;;;;;;;13.80;5.78;;;;;;;23.56;58.62;101235.41;6130867;23;20029;-80
2023/08/10 01:50:29;;;;;;;16.88;6.18;;;;;;;23.35;58.61;101201.19;6131339;23;20027;-80
2023/08/10 01:53:03;;;;;;;11.88;7.18;;;;;;;22.86;59.52;101131.91;6152057;23;20520;-80
2023/08/10 01:55:30;;;;;;;11.55;6.88;;;;;;;23.45;59.95;101245.81;6134107;23;20083;-80
2023/08/10 01:57:58;;;;;;;11.13;6.95;;;;;;;23.53;60.07;101252.91;6140889;23;20586;-82
2023/08/10 02:00:25;;;;;;;12.20;7.35;;;;;;;23.41;60.07;101239.13;6132384;23;20100;-80
2023/08/10 02:03:17;;;;;;;15.00;7.70;;;;;;;23.49;61.47;101262.47;6129035;23;20025;-81
2023/08/10 02:05:47;;;;;;;11.60;7.53;;;;;;;23.14;61.27;101205.72;6127943;23;20554;-82
2023/08/10 02:08:18;;;;;;;13.75;8.70;;;;;;;23.33;61.69;101241.22;6123341;23;20036;-81
2023/08/10 02:10:53;;;;;;;12.23;8.20;;;;;;;23.36;62.23;101257.88;6117576;23;20381;-81
2023/08/10 02:13:30;;;;;;;22.75;8.80;;;;;;;23.28;62.66;101260.78;6094524;23;20026;-81
2023/08/10 02:15:59;;;;;;;15.48;8.70;;;;;;;23.27;62.98;101272.63;6080211;23;20274;-82
2023/08/10 02:18:30;;;;;;;16.58;9.13;;;;;;;22.98;63.24;101234.00;6119038;23;20021;-82
2023/08/10 02:20:56;;;;;;;11.70;8.93;;;;;;;23.10;63.75;101247.78;6100006;23;20440;-81
2023/08/10 02:23:29;;;;;;;18.85;11.02;;;;;;;23.09;63.74;101246.13;6121598;23;20111;-82
2023/08/10 02:25:59;;;;;;;12.20;9.65;;;;;;;23.19;63.78;101262.81;6099623;23;20020;-80
2023/08/10 02:28:26;;;;;;;21.53;9.90;;;;;;;;;;6096201;23;20045;-81
2023/08/10 02:30:53;;;;;;;19.70;9.70;;;;;;;23.17;64.23;101264.06;6107456;23;20821;-82
2023/08/10 02:33:19;;;;;;;13.35;8.98;;;;;;;22.93;64.39;101231.03;6125704;23;20225;-82
2023/08/10 02:35:49;;;;;;;16.83;9.85;;;;;;;22.47;64.33;101155.09;6116267;23;20601;-80
2023/08/10 02:38:21;;;;;;;16.80;10.25;;;;;;;23.10;64.29;101257.78;6073432;23;20301;-81
2023/08/10 02:40:58;;;;;;;15.52;12.35;;;;;;;23.11;64.61;101273.84;6089631;23;20023;-81
2023/08/10 02:43:29;;;;;;;17.42;11.45;;;;;;;22.77;65.05;101221.41;6095317;23;20024;-80
2023/08/10 02:46:05;;;;;;;17.10;10.73;;;;;;;22.58;65.14;101200.53;6101174;23;20110;-79
2023/08/10 02:48:31;;;;;;;17.67;9.88;;;;;;;22.70;65.21;101220.56;6118958;23;20021;-79
2023/08/10 02:50:59;;;;;;;20.48;10.77;;;;;;;22.78;65.37;101242.03;6116090;23;20021;-81
2023/08/10 02:53:25;;;;;;;17.45;10.73;;;;;;;22.67;65.01;101220.09;6101189;23;20447;-82
2023/08/10 02:55:52;;;;;;;17.20;8.70;;;;;;;22.78;64.29;101228.50;6112042;23;20055;-82
2023/08/10 02:58:38;;;;;;;12.27;6.97;;;;;;;23.04;62.20;101281.13;6106162;23;20035;-81
2023/08/10 03:01:08;;;;;;;10.55;5.97;;;;;;;22.55;61.02;101192.78;6097669;23;20557;-81
2023/08/10 03:03:45;;;;;;;8.48;4.50;;;;;;;22.26;58.92;101148.75;6092342;23;20108;-83
2023/08/10 03:06:17;;;;;;;8.18;4.70;;;;;;;22.88;57.08;101248.94;6115621;23;20021;-80
2023/08/10 03:08:56;;;;;;;;;;;;;;;22.92;54.74;101275.41;6087765;23;20044;-82
2023/08/10 03:11:30;;;;;;;9.30;3.95;;;;;;;22.49;54.72;101201.72;6102816;23;19993;-81
2023/08/10 03:13:59;;;;;;;7.72;3.72;;;;;;;22.86;53.84;101248.31;6077812;23;20024;-80
2023/08/10 03:16:26;;;;;;;7.15;4.05;;;;;;;22.95;52.82;101269.59;6098953;23;20287;-82
2023/08/10 03:18:56;;;;;;;9.70;3.85;;;;;;;22.96;52.02;101268.56;6084175;23;20048;-81
2023/08/10 03:21:28;;;;;;;7.03;3.80;;;;;;;22.89;51.98;101269.53;6108242;23;20446;-80
2023/08/10 03:23:58;;;;;;;9.68;3.97;;;;;;;22.99;51.33;101272.75;6114968;23;20020;-80
2023/08/10 03:26:30;;;;;;;4.85;3.72;;;;;;;22.94;50.92;101281.47;6120336;23;20116;-80
2023/08/10 03:29:01;;;;;;;12.23;3.88;;;;;;;22.78;50.76;101263.69;6128284;23;20386;-80
2023/08/10 03:31:30;;;;;;;8.20;3.90;;;;;;;22.89;50.98;101286.66;6093712;23;20468;-81
2023/08/10 03:34:02;;;;;;;12.07;4.03;;;;;;;22.94;50.22;101273.34;6087343;23;20048;-81
2023/08/10 03:36:35;;;;;;;8.43;4.30;;;;;;;22.88;49.79;101254.34;6070178;23;20029;-82
2023/08/10 03:39:03;;;;;;;8.07;3.75;;;;;;;22.73;50.28;101258.03;6107251;23;20067;-81
2023/08/10 03:41:34;;;;;;;8.00;4.20;;;;;;;22.81;49.77;101260.56;6102353;23;20398;-82
2023/08/10 03:44:11;;;;;;;11.43;4.45;;;;;;;22.94;49.60;101286.03;6077819;23;20067;-81
2023/08/10 03:46:53;;;;;;;5.93;3.03;;;;;;;22.29;49.37;101186.22;6077824;23;20504;-81
2023/08/10 03:49:26;;;;;;;8.93;3.90;;;;;;;22.82;49.44;101278.50;6107730;23;20237;-81
2023/08/10 03:51:54;;;;;;;7.63;3.53;;;;;;;22.22;49.17;101184.50;6112982;23;20017;-81
2023/08/10 03:54:22;;;;;;;8.48;3.88;;;;;;;22.63;49.44;101251.34;6135562;23;20091;-81
2023/08/10 03:56:52;;;;;;;8.10;3.53;;;;;;;22.71;49.60;101276.34;6091403;23;20025;-81
2023/08/10 03:59:23;;;;;;;9.43;4.15;;;;;;;22.79;49.55;101288.88;6092013;23;20025;-81
2023/08/10 04:01:58;;;;;;;8.32;3.97;;;;;;;22.67;49.65;101274.22;6105666;23;20465;-81
2023/08/10 04:04:38;;;;;;;8.90;3.72;;;;;;;22.50;49.94;101263.75;6132854;23;20393;-81
2023/08/10 04:07:08;;;;;;;7.03;3.70;;;;;;;22.69;50.03;101291.94;6105407;23;20039;-82
2023/08/10 04:09:47;;;;;;;8.13;3.65;;;;;;;22.49;50.09;101259.34;6124051;23;20028;-81
2023/08/10 04:12:17;;;;;;;9.75;4.05;;;;;;;22.67;50.23;101291.31;6144625;23;20021;-81
2023/08/10 04:14:49;;;;;;;7.05;3.65;;;;;;;22.65;50.22;101290.69;6116740;23;20401;-80
2023/08/10 04:17:26;;;;;;;9.45;4.03;;;;;;;22.46;50.26;101256.22;6093206;23;20029;-81
2023/08/10 04:19:54;;;;;;;7.05;3.67;;;;;;;21.93;50.48;101183.66;6151190;23;20464;-81
2023/08/10 04:22:23;;;;;;;7.95;3.67;;;;;;;22.19;50.54;101226.28;6148077;23;20017;-81
2023/08/10 04:24:55;;;;;;;8.20;3.63;;;;;;;22.71;50.55;101303.41;6160253;23;20099;-81
2023/08/10 04:27:25;;;;;;;12.60;3.70;;;;;;;22.65;50.83;101293.38;6150421;23;20105;-80
2023/08/10 04:29:55;;;;;;;8.35;3.80;;;;;;;22.49;50.82;101261.22;6157775;23;20531;-80
2023/08/10 04:32:21;;;;;;;10.55;3.40;;;;;;;22.68;50.99;101301.09;6129578;23;20017;-81
2023/08/10 04:34:51;;;;;;;9.18;3.80;;;;;;;22.73;51.42;101300.50;6133177;23;20531;-81
2023/08/10 04:37:23;;;;;;;11.45;3.33;;;;;;;22.71;51.33;101300.69;6130816;23;20287;-81
2023/08/10 04:39:53;;;;;;;11.90;3.67;;;;;;;22.63;51.21;101292.75;6127039;23;20021;-81
2023/08/10 04:42:20;;;;;;;20.92;4.40;;;;;;;22.70;51.52;101290.09;6136506;23;20029;-80
2023/08/10 04:44:49;;;;;;;11.43;4.20;;;;;;;22.82;50.93;101300.13;6156159;23;20344;-80
2023/08/10 04:47:26;;;;;;;10.23;4.50;;;;;;;21.68;50.84;101110.31;6126289;23;20136;-81
2023/08/10 04:50:03;;;;;;;7.38;3.88;;;;;;;22.63;50.50;101262.16;6124343;23;20021;-81
2023/08/10 04:52:30;;;;;;;10.38;4.32;;;;;;;22.85;51.17;101304.31;6132096;23;20116;-81
2023/08/10 04:55:05;;;;;;;7.53;3.95;;;;;;;22.99;51.30;101311.50;6112794;23;20361;-81
2023/08/10 04:57:38;;;;;;;9.95;4.40;;;;;;;22.87;51.02;101299.53;6134714;23;20064;-80
2023/08/10 05:00:15;;;;;;;12.48;4.10;;;;;;;22.98;50.87;101309.81;6158100;23;20322;-80
2023/08/10 05:02:43;;;;;;;41.53;29.35;;;;;;;22.60;51.63;101260.69;6147106;23;20485;-81
2023/08/10 05:05:11;;;;;;;13.18;6.13;;;;;;;22.71;52.14;101289.03;6149486;23;20021;-83
2023/08/10 05:07:38;;;;;;;8.40;4.40;;;;;;;22.93;51.14;101316.84;6149473;23;20017;-80
2023/08/10 05:10:10;;;;;;;9.82;4.10;;;;;;;22.19;50.72;101197.34;6152417;23;20027;-80
2023/08/10 05:12:40;;;;;;;8.77;4.03;;;;;;;22.84;50.43;101289.09;6133208;23;20100;-81
2023/08/10 05:15:13;;;;;;;15.73;4.93;;;;;;;23.08;50.72;101314.84;6150893;23;20123;-81
2023/08/10 05:17:39;;;;;;;19.23;5.65;;;;;;;22.92;51.21;101305.19;6140424;23;20099;-80
2023/08/10 05:20:12;;;;;;;12.15;5.35;;;;;;;22.33;51.46;101181.22;6133519;23;20106;-81
2023/08/10 05:22:41;;;;;;;11.95;4.80;;;;;;;23.16;51.07;101322.00;6134999;23;20188;-81
2023/08/10 05:25:11;;;;;;;16.75;4.50;;;;;;;23.11;50.77;101309.06;6115739;23;20017;-80
2023/08/10 05:27:42;;;;;;;12.82;4.85;;;;;;;22.95;50.74;101276.88;6130205;23;20516;-80
2023/08/10 05:30:11;;;;;;;10.73;4.00;;;;;;;22.19;50.79;101175.72;6150067;23;20438;-82
2023/08/10 05:32:39;;;;;;;7.85;3.83;;;;;;;23.22;50.89;101332.84;6143673;23;20024;-81
2023/08/10 05:35:11;;;;;;;14.15;4.97;;;;;;;23.25;50.65;101326.19;6156123;23;20025;-81
2023/08/10 05:37:38;;;;;;;14.32;4.47;;;;;;;23.37;50.47;101354.34;6158990;23;20373;-81
2023/08/10 05:40:09;;;;;;;13.98;4.50;;;;;;;23.34;51.57;101359.34;6147039;23;20024;-82
2023/08/10 05:42:40;;;;;;;9.65;4.28;;;;;;;23.14;51.36;101330.31;6131909;23;20345;-81
2023/08/10 05:45:15;;;;;;;15.45;4.93;;;;;;;22.67;51.17;101231.78;6108627;23;20021;-80
2023/08/10 05:47:56;;;;;;;13.57;4.97;;;;;;;23.35;51.90;101344.75;6108116;23;20876;-81
2023/08/10 05:50:43;;;;;;;10.27;4.43;;;;;;;23.50;51.81;101375.25;6112952;23;20185;-81
2023/08/10 05:53:17;;;;;;;12.45;4.25;;;;;;;23.50;51.66;101367.13;6115168;23;20192;-82
2023/08/10 05:55:52;;;;;;;;;;;;;;;23.61;51.10;101374.66;6121337;23;20515;-81
2023/08/10 05:58:18;;;;;;;15.43;4.50;;;;;;;23.64;50.96;101368.84;6128283;23;19927;-80
2023/08/10 06:00:45;;;;;;;10.40;4.13;;;;;;;23.74;50.43;101375.75;6143935;23;20515;-82
2023/08/10 06:03:12;;;;;;;9.32;4.80;;;;;;;23.15;50.24;101285.09;6146511;23;20373;-82
2023/08/10 06:05:42;;;;;;;14.75;4.55;;;;;;;23.47;49.89;101329.59;6146838;23;20025;-81
2023/08/10 06:08:09;;;;;;;11.00;4.45;;;;;;;23.85;50.52;101392.28;6141631;23;20025;-82
2023/08/10 06:10:42;;;;;;;12.88;4.40;;;;;;;23.27;50.20;101296.19;6127986;23;20024;-81
2023/08/10 06:13:08;;;;;;;11.07;4.28;;;;;;;23.83;50.53;101388.91;6149908;23;20679;-81
2023/08/10 06:15:35;;;;;;;13.05;5.28;;;;;;;23.90;50.65;101369.97;6145559;23;20044;-80
2023/08/10 06:18:04;;;;;;;11.10;4.57;;;;;;;23.81;51.24;101358.50;6150681;23;20464;-80
2023/08/10 06:20:34;;;;;;;12.68;4.47;;;;;;;24.00;51.16;101372.28;6175556;23;20025;-81
2023/08/10 06:23:04;;;;;;;13.05;5.15;;;;;;;23.92;51.65;101359.75;6133536;23;20021;-80
2023/08/10 06:25:30;;;;;;;9.50;4.72;;;;;;;23.38;51.37;101274.75;6145042;23;20956;-80
2023/08/10 06:28:06;;;;;;;12.63;5.05;;;;;;;24.09;51.05;101382.72;6123822;23;20516;-80
2023/08/10 06:30:43;;;;;;;13.23;5.03;;;;;;;23.86;51.08;101344.28;6113913;23;20163;-80
2023/08/10 06:33:11;;;;;;;18.67;4.78;;;;;;;24.16;50.89;101395.47;6129458;23;20609;-80
2023/08/10 06:35:39;;;;;;;18.58;5.03;;;;;;;24.06;51.32;101385.84;6132603;23;20098;-80
2023/08/10 06:38:06;;;;;;;9.60;4.53;;;;;;;23.78;51.31;101325.53;6119114;23;20022;-79
2023/08/10 06:40:40;;;;;;;13.73;4.05;;;;;;;24.24;51.28;101387.94;6147872;23;20013;-80
2023/08/10 06:43:10;;;;;;;21.30;4.70;;;;;;;24.32;51.43;101403.19;6167374;23;20017;-79
2023/08/10 06:45:43;;;;;;;19.48;4.93;;;;;;;24.41;51.30;101403.81;6108769;23;20050;-82
2023/08/10 06:48:18;;;;;;;8.57;4.05;;;;;;;24.43;49.87;101378.13;6114999;23;20210;-81
2023/08/10 06:50:48;;;;;;;15.95;4.03;;;;;;;24.56;49.65;101395.50;6124281;23;20027;-81
2023/08/10 06:53:15;;;;;;;10.02;4.28;;;;;;;24.55;49.59;101405.53;6145106;23;20055;-81
2023/08/10 06:55:42;;;;;;;16.10;4.53;;;;;;;24.32;49.35;101359.75;6135597;23;20634;-80
2023/08/10 06:58:12;;;;;;;14.43;4.13;;;;;;;24.64;49.43;101404.28;6125699;23;20021;-81
2023/08/10 07:01:00;;;;;;;8.02;4.15;;;;;;;24.49;49.18;101365.63;6137451;23;20021;-81
2023/08/10 07:03:28;;;;;;;8.02;3.38;;;;;;;24.49;49.29;101369.22;6147261;23;20021;-79
2023/08/10 07:06:03;;;;;;;9.73;4.13;;;;;;;24.77;48.91;101395.25;6126764;23;20017;-80
2023/08/10 07:08:43;;;;;;;13.00;4.55;;;;;;;24.82;48.73;101397.34;6099053;23;20052;-80
2023/08/10 07:11:25;;;;;;;13.77;4.28;;;;;;;24.62;49.48;101353.94;6083577;23;20373;-79
2023/08/10 07:14:06;;;;;;;6.68;3.72;;;;;;;25.00;48.86;101404.81;6099667;23;20100;-80
2023/08/10 07:16:52;;;;;;;10.37;4.00;;;;;;;24.98;48.66;101412.34;6086575;23;20376;-81
2023/08/10 07:19:38;;;;;;;7.28;3.70;;;;;;;24.88;48.85;101397.34;6087182;23;20989;-81
2023/08/10 07:22:10;;;;;;;10.70;4.85;;;;;;;25.19;48.26;101409.41;6108086;23;20500;-79
2023/08/10 07:24:36;;;;;;;8.32;3.80;;;;;;;25.10;48.55;101399.81;6147737;23;20242;-79
2023/08/10 07:27:03;;;;;;;7.20;3.33;;;;;;;24.66;48.89;101341.59;6131583;23;20013;-80
2023/08/10 07:29:43;;;;;;;11.82;4.25;;;;;;;25.03;48.97;101399.00;6090682;23;20221;-81
2023/08/10 07:32:19;;;;;;;10.00;4.00;;;;;;;25.18;49.22;101412.34;6100997;23;20108;-81
2023/08/10 07:34:46;;;;;;;8.38;3.78;;;;;;;25.28;49.52;101418.16;6137124;23;20398;-80
2023/08/10 07:37:12;;;;;;;14.30;4.90;;;;;;;25.28;49.71;101424.44;6147550;23;20041;-80
2023/08/10 07:39:39;;;;;;;14.07;5.50;;;;;;;25.04;50.11;101373.47;6118509;23;20095;-80
2023/08/10 07:42:06;;;;;;;11.38;4.30;;;;;;;25.34;50.94;101418.16;6136734;23;20103;-80
2023/08/10 07:44:33;;;;;;;12.63;4.18;;;;;;;25.13;50.79;101374.91;6130344;23;20052;-80
2023/08/10 07:47:00;;;;;;;19.38;5.75;;;;;;;25.41;50.84;101420.00;6148443;23;20079;-80
2023/08/10 07:49:31;;;;;;;14.65;4.22;;;;;;;24.83;50.65;101317.53;6136346;23;20315;-81
2023/08/10 07:52:04;;;;;;;12.60;4.65;;;;;;;25.49;51.80;101414.34;6138886;23;20423;-83
2023/08/10 07:54:38;;;;;;;14.18;4.50;;;;;;;25.59;52.01;101425.56;6092619;23;20198;-79
2023/08/10 07:57:18;;;;;;;11.98;4.60;;;;;;;25.64;51.85;101422.22;6103217;23;20370;-80
2023/08/10 08:00:04;;;;;;;11.73;4.72;;;;;;;25.99;51.61;101428.09;6059265;23;20028;-80
2023/08/10 08:02:41;;;;;;;9.90;4.05;;;;;;;25.92;51.95;101432.75;6095981;23;20047;-79
2023/08/10 08:05:12;;;;;;;11.85;4.35;;;;;;;25.88;52.14;101431.53;6086677;23;20556;-80
2023/08/10 08:07:46;;;;;;;14.10;4.75;;;;;;;25.90;53.01;101437.56;6131066;23;20053;-80
2023/08/10 08:10:12;;;;;;;12.60;5.03;;;;;;;25.83;52.34;101415.84;6124479;23;20025;-79
2023/08/10 08:12:39;;;;;;;13.18;4.65;;;;;;;25.86;53.49;101409.16;6113071;23;20442;-78
2023/08/10 08:15:21;;;;;;;14.00;3.90;;;;;;;25.95;55.15;101413.28;6076373;23;20496;-79
2023/08/10 08:18:34;;;;;;;15.10;4.60;;;;;;;25.86;56.23;101388.22;6086259;23;20335;-79
2023/08/10 08:21:21;;;;;;;6.45;4.32;;;;;;;26.15;56.07;101435.75;6068160;23;20384;-79
2023/08/10 08:23:50;;;;;;;9.52;4.45;;;;;;;25.97;55.53;101384.81;6113729;23;20017;-80
2023/08/10 08:26:18;;;;;;;7.85;3.90;;;;;;;26.15;55.92;101413.97;6131815;23;20024;-81
2023/08/10 08:28:46;;;;;;;8.98;3.88;;;;;;;26.17;55.97;101406.44;6139897;23;20276;-80
2023/08/10 08:31:16;;;;;;;7.30;2.78;;;;;;;26.26;56.20;101408.88;6106570;23;20032;-80
2023/08/10 08:33:53;;;;;;;7.82;3.28;;;;;;;26.56;55.87;101434.41;6097099;23;20700;-80
2023/08/10 08:36:22;;;;;;;3.72;2.97;;;;;;;26.62;56.04;101433.50;6150672;23;20017;-80
2023/08/10 08:38:53;;;;;;;5.65;2.95;;;;;;;26.60;55.55;101386.63;6153029;23;20393;-80
2023/08/10 08:41:34;;;;;;;11.43;2.90;;;;;;;27.00;55.22;101437.97;6109001;23;20831;-78
2023/08/10 08:44:05;;;;;;;5.35;2.78;;;;;;;26.93;55.66;101431.78;6119807;23;20442;-78
2023/08/10 08:46:33;;;;;;;6.25;2.90;;;;;;;27.05;54.85;101429.97;6109747;23;20402;-81
2023/08/10 08:49:02;;;;;;;4.15;2.80;;;;;;;26.77;54.74;101366.97;6141125;23;20095;-80
2023/08/10 08:51:33;;;;;;;4.60;2.13;;;;;;;27.23;53.47;101433.78;6142272;23;20103;-80
2023/08/10 08:54:01;;;;;;;7.68;3.35;;;;;;;26.66;53.75;101349.50;6118879;23;20025;-80
2023/08/10 08:56:28;;;;;;;7.82;2.97;;;;;;;27.27;52.97;101435.84;6121093;23;20048;-80
2023/08/10 08:59:00;;;;;;;4.70;2.65;;;;;;;27.36;53.20;101439.09;6104458;23;20028;-79
2023/08/10 09:01:27;;;;;;;10.05;3.10;;;;;;;27.26;53.59;101419.72;6147828;23;20021;-79
2023/08/10 09:03:58;;;;;;;5.45;2.67;;;;;;;26.91;52.92;101359.50;6081735;23;20476;-82
2023/08/10 09:06:25;;;;;;;3.45;2.30;;;;;;;27.38;52.82;101417.91;6141924;23;20476;-80
2023/08/10 09:08:51;;;;;;;3.22;2.83;;;;;;;27.58;52.86;101428.53;6120063;23;20017;-80
2023/08/10 09:11:19;;;;;;;5.72;2.67;;;;;;;27.28;52.69;101384.88;6101375;23;20035;-79
2023/08/10 09:14:08;;;;;;;3.88;2.67;;;;;;;27.73;53.28;101441.78;6077790;23;20243;-81
2023/08/10 09:16:38;;;;;;;8.60;2.60;;;;;;;27.84;52.74;101435.59;6113296;23;20017;-82
2023/08/10 09:19:11;;;;;;;5.78;3.00;;;;;;;27.63;53.07;101415.06;6118539;23;20158;-80
2023/08/10 09:21:38;;;;;;;9.05;2.90;;;;;;;27.42;53.15;101369.19;6127868;23;20028;-80
2023/08/10 09:24:09;;;;;;;7.60;3.20;;;;;;;27.88;52.74;101417.66;6112456;23;20353;-81
2023/08/10 09:26:39;;;;;;;6.18;3.00;;;;;;;28.09;52.51;101415.50;6140314;23;20049;-80
2023/08/10 09:29:05;;;;;;;3.15;2.22;;;;;;;27.88;51.45;101382.19;6109643;23;20021;-78
2023/08/10 09:31:36;;;;;;;4.03;2.53;;;;;;;28.08;51.74;101427.47;6133912;23;20013;-81
2023/08/10 09:34:13;;;;;;;7.20;2.70;;;;;;;28.07;51.19;101393.06;6118916;23;20025;-82
2023/08/10 09:36:53;;;;;;;4.93;2.70;;;;;;;28.09;49.79;101364.47;6091056;23;20230;-81
2023/08/10 09:39:29;;;;;;;11.52;3.00;;;;;;;28.41;50.13;101369.59;6061433;23;20239;-83
2023/08/10 09:41:57;;;;;;;6.18;3.05;;;;;;;28.60;50.39;101384.00;6072375;23;20272;-81
2023/08/10 09:44:41;;;;;;;9.25;2.97;;;;;;;28.88;49.72;101416.06;6134852;23;20021;-83
2023/08/10 09:47:09;;;;;;;5.57;2.80;;;;;;;28.88;49.80;101412.50;6105406;23;20519;-80
2023/08/10 09:49:39;;;;;;;6.68;2.75;;;;;;;28.99;49.67;101422.59;6107622;23;20448;-80
2023/08/10 09:52:07;;;;;;;17.83;3.17;;;;;;;28.44;50.17;101316.41;6080950;23;20255;-79
2023/08/10 09:54:40;;;;;;;13.00;2.55;;;;;;;28.17;50.03;101278.66;6086945;23;20021;-83
2023/08/10 09:57:19;;;;;;;2.80;2.22;;;;;;;28.90;49.49;101402.16;6083467;23;20024;-82
2023/08/10 09:59:59;;;;;;;3.08;2.75;;;;;;;28.92;49.64;101397.28;6055703;23;20029;-82
2023/08/10 10:02:39;;;;;;;8.02;2.13;;;;;;;29.43;47.64;101392.91;6128575;23;20025;-83
2023/08/10 10:05:07;;;;;;;6.03;2.30;;;;;;;29.33;47.46;101358.00;6183578;23;20021;-79
2023/08/10 10:07:38;;;;;;;5.50;3.15;;;;;;;29.24;47.48;101326.63;6145252;23;20076;-80
2023/08/10 10:10:12;;;;;;;4.60;2.47;;;;;;;29.73;47.06;101387.22;6156456;23;20104;-79
2023/08/10 10:12:39;;;;;;;7.57;2.65;;;;;;;29.92;46.70;101387.84;6140627;23;20901;-78
2023/08/10 10:15:12;;;;;;;11.45;2.33;;;;;;;30.16;46.63;101413.19;6110691;23;20414;-80
2023/08/10 10:17:51;;;;;;;3.38;2.60;;;;;;;30.22;46.25;101400.41;6130142;23;20025;-81
2023/08/10 10:20:20;;;;;;;5.13;2.90;;;;;;;30.45;44.75;101413.16;6119450;23;20027;-81
2023/08/10 10:22:48;;;;;;;9.18;2.25;;;;;;;30.04;44.42;101336.59;6136873;23;20048;-80
2023/08/10 10:25:19;;;;;;;3.80;2.58;;;;;;;30.58;44.27;101392.78;6128683;23;20017;-80
2023/08/10 10:27:52;;;;;;;5.93;2.15;;;;;;;30.60;43.93;101404.31;6153662;23;20017;-82
2023/08/10 10:30:27;;;;;;;4.38;2.25;;;;;;;30.23;44.21;101328.97;6127865;23;20410;-82
2023/08/10 10:33:04;;;;;;;3.50;2.00;;;;;;;30.62;44.14;101380.25;6077042;23;20246;-79
2023/08/10 10:35:36;;;;;;;2.85;1.55;;;;;;;30.80;43.44;101399.16;6119207;23;20404;-83
2023/08/10 10:38:03;;;;;;;4.43;1.63;;;;;;;30.56;43.86;101395.78;6136915;23;20021;-80
2023/08/10 10:40:30;;;;;;;3.45;2.33;;;;;;;30.34;44.08;101401.22;6129039;23;20265;-83
2023/08/10 10:43:03;;;;;;;2.90;2.42;;;;;;;30.39;44.05;101401.28;6141083;23;20025;-82
2023/08/10 10:45:43;;;;;;;8.73;2.58;;;;;;;30.44;43.33;101403.28;6153501;23;20108;-80
2023/08/10 10:48:11;;;;;;;4.72;2.08;;;;;;;30.42;42.58;101365.16;6149085;23;20021;-79
2023/08/10 10:50:42;;;;;;;8.70;2.38;;;;;;;30.66;42.14;101370.47;6114163;23;20136;-80
2023/08/10 10:53:26;;;;;;;4.97;2.60;;;;;;;30.88;42.27;101385.03;6092967;23;20320;-80
2023/08/10 10:56:01;;;;;;;5.05;2.30;;;;;;;31.14;41.91;101390.84;6155686;23;20377;-80
2023/08/10 10:58:32;;;;;;;3.22;1.55;;;;;;;31.37;41.73;101397.19;6137282;23;20020;-80
2023/08/10 11:01:05;;;;;;;7.57;2.45;;;;;;;31.60;41.45;101391.41;6136084;23;20341;-80
2023/08/10 11:03:33;;;;;;;6.53;1.97;;;;;;;31.86;40.75;101394.44;6165578;23;20514;-80
2023/08/10 11:06:02;;;;;;;4.72;2.45;;;;;;;32.03;40.84;101372.38;6174637;23;20017;-80
2023/08/10 11:08:42;;;;;;;5.50;2.13;;;;;;;32.32;40.30;101392.13;6136485;23;20100;-81
2023/08/10 11:11:12;;;;;;;7.27;3.07;;;;;;;32.38;39.19;101355.31;6169539;23;20164;-80
2023/08/10 11:13:39;;;;;;;5.68;2.45;;;;;;;32.33;38.77;101366.28;6146399;23;20295;-79
2023/08/10 11:16:07;;;;;;;4.88;2.50;;;;;;;32.17;39.23;101395.56;6155770;23;20033;-80
2023/08/10 11:18:34;;;;;;;6.00;2.70;;;;;;;31.55;39.50;101317.28;6139944;23;20025;-80
2023/08/10 11:21:12;;;;;;;6.10;2.60;;;;;;;31.83;40.09;101378.50;6143289;23;20021;-80
2023/08/10 11:23:39;;;;;;;5.25;2.50;;;;;;;32.00;40.49;101384.72;6154990;23;20024;-79
2023/08/10 11:26:07;;;;;;;6.88;3.03;;;;;;;31.85;40.29;101365.34;6157757;23;20024;-81
2023/08/10 11:28:34;;;;;;;8.43;2.90;;;;;;;32.25;39.92;101364.03;6144468;23;20467;-80
2023/08/10 11:31:06;;;;;;;4.43;2.33;;;;;;;32.41;37.89;101352.06;6133136;23;20021;-80
2023/08/10 11:33:38;;;;;;;8.32;2.83;;;;;;;32.74;37.55;101366.56;6143022;23;20025;-79
2023/08/10 11:36:05;;;;;;;4.40;2.58;;;;;;;32.23;38.00;101251.66;6117367;23;20211;-81
2023/08/10 11:38:42;;;;;;;3.22;2.28;;;;;;;33.02;37.99;101346.09;6125172;23;20448;-81
2023/08/10 11:41:09;;;;;;;4.38;2.55;;;;;;;33.19;36.77;101344.00;6156419;23;20452;-81
2023/08/10 11:43:40;;;;;;;6.32;2.53;;;;;;;33.46;36.32;101369.66;6118487;23;20095;-82